LFKB Airport Information

Runway Information
Runway 16 Length 8266 ft width 148 ft
Elevation 13 ft Threshold 0 ft Heading 163
Runway 34 Length 8266 ft Width 148 ft
Elevation 26 ft Threshold 0 ft Heading 343
Airport Frequencies
Type AFIS Name BASTIA INF Frequency 124.725 MHZ
Type APP Name BASTIA RAD Frequency 123.825 MHZ
Type ARR Name BASTIA APP Frequency 37.85 MHZ
Type ATIS Name BASTIA ATI Frequency 125.925 MHZ
Type GND Name GND Frequency 121.825 MHZ
Type TWR Name BASTIA TWR Frequency 118 MHZ
Airport Navaids
Type VOR-DME Name Bastia Frequency 114150 KHZ
Airport Weather Information & NOTAM
ADDS - METARS form results

(2046 UTC 23 February 2019)
Data provider http://aviationweather.gov/metar/data/
 
METAR text: LFKB 232030Z AUTO VRB03KT CAVOK 06/M04 Q1031 NOSIG
Conditions at: LFKB (BASTIA/PORETTA , FR) observed 2030 UTC 23 February 2019
Temperature: 6.0°C (43°F)
Dewpoint: -4.0°C (25°F) [RH = 49%]
Pressure (altimeter): 30.44 inches Hg (1031.0 mb)
Winds: variable direction winds at 3 MPH (3 knots; 1.5 m/s)
Visibility: 6 or more miles (10+ km)
Ceiling: ceiling and visibility are OK
Clouds: unknown
Weather: no significant weather observed at this time

METAR text: LFKB 232000Z AUTO 03006KT 350V060 CAVOK 09/M05 Q1030 NOSIG
Conditions at: LFKB (BASTIA/PORETTA , FR) observed 2000 UTC 23 February 2019
Temperature: 9.0°C (48°F)
Dewpoint: -5.0°C (23°F) [RH = 37%]
Pressure (altimeter): 30.41 inches Hg (1030.0 mb)
Winds: from the NNE (30 degrees) at 7 MPH (6 knots; 3.1 m/s)
Visibility: 6 or more miles (10+ km)
Ceiling: ceiling and visibility are OK
Clouds: unknown
Weather: no significant weather observed at this time

Forecast for: LFKB (BASTIA/PORETTA , FR)
Text: TAF LFKB 232000Z 2321/2421 04008KT CAVOK TX14/2413Z TN03/2404Z
Forecast period: 2100 UTC 23 February 2019 to 2100 UTC 24 February 2019
Forecast type: FROM: standard forecast or significant change
Winds: from the NE (40 degrees) at 9 MPH (8 knots; 4.1 m/s)
Visibility: 6 or more miles 10+ km)
Ceiling: unknown
Clouds: missing
Weather: no significant weather forecast for this period
Text: TEMPO 2411/2415 34010G20KT
Forecast period: 1100 to 1500 UTC 24 February 2019
Forecast type: TEMPORARY: The following changes expected for less than half the time period
Winds: from the NNW (340 degrees) at 12 MPH (10 knots; 5.1 m/s)
gusting to 23 MPH (20 knots; 10.3 m/s)
Visibility: missing
Ceiling: unknown
Clouds: missing
Weather: no significant weather forecast for this period